Airfield :
LOGIN :

Register | Disclaimer

   EN    FR    IT 

 










Legend :    VFR   Marginal VFR   IFR   Intensive IFR   Very Intensive IFR
Visi :
Ceiling :
>= 8 km
>= 3000ft
5 to 8 km
1000 to 3000 ft
1500m to 5 km
500 to 1000 ft
800 to 1500m
200 to 500 ft
< 800m
< 200 ft
Symbols :   Thunderstorms  Fog  Heavy snow  Heavy precipitations  Wind > 20 kt
SIGMETs :     Misc.  Thunderstorms  Icing  Turbulence  Mountain Waves  Volcanic Ashes






- Airport Elevation : 13 ft
- IATA code : OST


EBOS - Oostend bruges Int.

CURRENT METAR :
  • 192320Z 12004KT 9999 FEW034 BKN048 03/01 Q1018 NOSIG

EXPIRED METARs :
  • 192250Z 13006KT 9999 FEW034 BKN048 03/01 Q1018 NOSIG
  • 192220Z 16005KT 9999 FEW034 BKN048 03/01 Q1018 NOSIG
  • 192150Z 16005KT 9999 FEW034 BKN042 03/01 Q1018 NOSIG
  • 192120Z 14003KT 9999 FEW034 BKN042 02/01 Q1018 NOSIG
  • 192050Z 14005KT 9999 FEW034 BKN042 02/00 Q1018 NOSIG

TAF TAF EBOS
Valid from the 20 at 00:00 until the 21 at 06:00 UTC


192310Z 2000/2106 13006KT CAVOK
PROB30
TEMPO 2004/2008 0500 FZFG BKN002
PROB40 2000/2006 2000 BR BKN003



MET'MAP, your aeronautical weather chart ! - Copyright ORBIFLY December 2007 - Disclaimer

ORBIFLY MET'MAP TEAM :

Programming & Development : Alexandra Zaïnal
Concept & Development : Baudouin d'Aumeries
Co-Development & Prog : Marc-Olivier Méhu
Technical & hardware support : Manuel Goepfert

Contact : metmap@orbifly.com




SOURCES & CREDITS :

   NOAA